sensor_id;sensor_type;location;lat;lon;timestamp;temperature;humidity
46440;DHT22;32138;50.966;6.968;2022-12-29T00:00:33;11.70;98.90
46440;DHT22;32138;50.966;6.968;2022-12-29T00:01:34;11.70;98.80
46440;DHT22;32138;50.966;6.968;2022-12-29T00:02:35;11.70;99.00
46440;DHT22;32138;50.966;6.968;2022-12-29T00:03:36;11.70;99.00
46440;DHT22;32138;50.966;6.968;2022-12-29T00:04:37;11.70;99.10
46440;DHT22;32138;50.966;6.968;2022-12-29T00:05:37;11.70;99.30
46440;DHT22;32138;50.966;6.968;2022-12-29T00:06:38;11.60;99.20
46440;DHT22;32138;50.966;6.968;2022-12-29T00:07:39;11.60;99.30
46440;DHT22;32138;50.966;6.968;2022-12-29T00:08:40;11.70;99.20
46440;DHT22;32138;50.966;6.968;2022-12-29T00:09:40;11.60;99.20
46440;DHT22;32138;50.966;6.968;2022-12-29T00:10:41;11.60;99.20
46440;DHT22;32138;50.966;6.968;2022-12-29T00:11:42;11.60;99.30
46440;DHT22;32138;50.966;6.968;2022-12-29T00:12:43;11.60;99.20
46440;DHT22;32138;50.966;6.968;2022-12-29T00:14:03;11.60;99.10
46440;DHT22;32138;50.966;6.968;2022-12-29T00:15:22;11.70;99.20
46440;DHT22;32138;50.966;6.968;2022-12-29T00:16:41;11.70;99.30
46440;DHT22;32138;50.966;6.968;2022-12-29T00:17:43;11.70;99.30
46440;DHT22;32138;50.966;6.968;2022-12-29T00:18:44;11.70;99.20
46440;DHT22;32138;50.966;6.968;2022-12-29T00:19:44;11.70;99.10
46440;DHT22;32138;50.966;6.968;2022-12-29T00:21:04;11.70;99.10
46440;DHT22;32138;50.966;6.968;2022-12-29T00:22:23;11.70;98.90
46440;DHT22;32138;50.966;6.968;2022-12-29T00:23:43;11.60;99.20
46440;DHT22;32138;50.966;6.968;2022-12-29T00:25:03;11.60;99.30
46440;DHT22;32138;50.966;6.968;2022-12-29T00:26:23;11.70;99.00
46440;DHT22;32138;50.966;6.968;2022-12-29T00:27:42;11.70;99.30
46440;DHT22;32138;50.966;6.968;2022-12-29T00:29:01;11.70;99.30
46440;DHT22;32138;50.966;6.968;2022-12-29T00:30:22;11.70;99.30
46440;DHT22;32138;50.966;6.968;2022-12-29T00:31:42;11.70;99.30
46440;DHT22;32138;50.966;6.968;2022-12-29T00:33:11;11.80;99.30
46440;DHT22;32138;50.966;6.968;2022-12-29T00:34:31;11.70;99.30
46440;DHT22;32138;50.966;6.968;2022-12-29T00:36:12;11.70;99.40
46440;DHT22;32138;50.966;6.968;2022-12-29T00:37:17;11.80;99.20
46440;DHT22;32138;50.966;6.968;2022-12-29T00:38:39;11.90;99.00
46440;DHT22;32138;50.966;6.968;2022-12-29T00:40:00;11.90;99.10
46440;DHT22;32138;50.966;6.968;2022-12-29T00:41:29;11.90;99.00
46440;DHT22;32138;50.966;6.968;2022-12-29T00:42:53;11.90;98.80
46440;DHT22;32138;50.966;6.968;2022-12-29T00:44:13;12.00;98.90
46440;DHT22;32138;50.966;6.968;2022-12-29T00:45:14;12.00;98.70
46440;DHT22;32138;50.966;6.968;2022-12-29T00:46:15;11.90;98.50
46440;DHT22;32138;50.966;6.968;2022-12-29T00:47:16;12.00;98.50
46440;DHT22;32138;50.966;6.968;2022-12-29T00:48:16;12.00;98.60
46440;DHT22;32138;50.966;6.968;2022-12-29T00:49:40;12.00;98.40
46440;DHT22;32138;50.966;6.968;2022-12-29T00:50:40;12.00;98.40
46440;DHT22;32138;50.966;6.968;2022-12-29T00:51:41;12.00;98.40
46440;DHT22;32138;50.966;6.968;2022-12-29T00:52:42;12.00;98.40
46440;DHT22;32138;50.966;6.968;2022-12-29T00:53:43;12.00;98.30
46440;DHT22;32138;50.966;6.968;2022-12-29T00:54:43;12.10;98.20
46440;DHT22;32138;50.966;6.968;2022-12-29T00:55:45;12.10;98.10
46440;DHT22;32138;50.966;6.968;2022-12-29T00:56:47;12.10;98.10
46440;DHT22;32138;50.966;6.968;2022-12-29T00:57:48;12.20;98.10
46440;DHT22;32138;50.966;6.968;2022-12-29T00:58:48;12.10;98.20
46440;DHT22;32138;50.966;6.968;2022-12-29T00:59:49;12.10;97.90
46440;DHT22;32138;50.966;6.968;2022-12-29T01:00:50;12.10;98.00
46440;DHT22;32138;50.966;6.968;2022-12-29T01:01:52;12.10;98.00
46440;DHT22;32138;50.966;6.968;2022-12-29T01:02:53;12.10;97.90
46440;DHT22;32138;50.966;6.968;2022-12-29T01:03:54;12.10;97.80
46440;DHT22;32138;50.966;6.968;2022-12-29T01:04:54;12.10;97.90
46440;DHT22;32138;50.966;6.968;2022-12-29T01:05:55;12.10;97.80
46440;DHT22;32138;50.966;6.968;2022-12-29T01:06:56;12.10;97.90
46440;DHT22;32138;50.966;6.968;2022-12-29T01:07:57;12.10;97.80
46440;DHT22;32138;50.966;6.968;2022-12-29T01:08:58;12.10;97.80
46440;DHT22;32138;50.966;6.968;2022-12-29T01:10:17;12.10;98.00
46440;DHT22;32138;50.966;6.968;2022-12-29T01:11:18;12.10;98.20
46440;DHT22;32138;50.966;6.968;2022-12-29T01:12:19;12.00;98.40
46440;DHT22;32138;50.966;6.968;2022-12-29T01:13:39;12.00;98.40
46440;DHT22;32138;50.966;6.968;2022-12-29T01:14:42;12.10;98.30
46440;DHT22;32138;50.966;6.968;2022-12-29T01:15:52;12.10;98.30
46440;DHT22;32138;50.966;6.968;2022-12-29T01:16:54;12.10;98.30
46440;DHT22;32138;50.966;6.968;2022-12-29T01:17:55;12.10;98.20
46440;DHT22;32138;50.966;6.968;2022-12-29T01:18:55;12.10;98.20
46440;DHT22;32138;50.966;6.968;2022-12-29T01:19:56;12.10;98.40
46440;DHT22;32138;50.966;6.968;2022-12-29T01:21:02;12.20;98.20
46440;DHT22;32138;50.966;6.968;2022-12-29T01:22:04;12.20;98.10
46440;DHT22;32138;50.966;6.968;2022-12-29T01:23:05;12.20;97.90
46440;DHT22;32138;50.966;6.968;2022-12-29T01:24:06;12.20;97.90
46440;DHT22;32138;50.966;6.968;2022-12-29T01:25:07;12.30;97.60
46440;DHT22;32138;50.966;6.968;2022-12-29T01:26:09;12.30;97.70
46440;DHT22;32138;50.966;6.968;2022-12-29T01:27:13;12.20;97.70
46440;DHT22;32138;50.966;6.968;2022-12-29T01:28:13;12.30;97.70
46440;DHT22;32138;50.966;6.968;2022-12-29T01:29:14;12.30;97.60
46440;DHT22;32138;50.966;6.968;2022-12-29T01:30:15;12.40;97.30
46440;DHT22;32138;50.966;6.968;2022-12-29T01:31:16;12.40;97.30
46440;DHT22;32138;50.966;6.968;2022-12-29T01:32:17;12.40;97.40
46440;DHT22;32138;50.966;6.968;2022-12-29T01:33:18;12.40;97.40
46440;DHT22;32138;50.966;6.968;2022-12-29T01:34:18;12.40;97.30
46440;DHT22;32138;50.966;6.968;2022-12-29T01:35:19;12.30;97.10
46440;DHT22;32138;50.966;6.968;2022-12-29T01:36:20;12.40;97.10
46440;DHT22;32138;50.966;6.968;2022-12-29T01:37:21;12.40;97.10
46440;DHT22;32138;50.966;6.968;2022-12-29T01:38:21;12.40;97.10
46440;DHT22;32138;50.966;6.968;2022-12-29T01:39:22;12.40;97.10
46440;DHT22;32138;50.966;6.968;2022-12-29T01:40:23;12.40;97.00
46440;DHT22;32138;50.966;6.968;2022-12-29T01:41:24;12.40;97.10
46440;DHT22;32138;50.966;6.968;2022-12-29T01:42:25;12.50;96.40
46440;DHT22;32138;50.966;6.968;2022-12-29T01:43:53;12.50;96.30
46440;DHT22;32138;50.966;6.968;2022-12-29T01:44:58;12.50;96.20
46440;DHT22;32138;50.966;6.968;2022-12-29T01:46:00;12.50;96.20
46440;DHT22;32138;50.966;6.968;2022-12-29T01:47:01;12.60;95.90
46440;DHT22;32138;50.966;6.968;2022-12-29T01:48:03;12.60;95.90
46440;DHT22;32138;50.966;6.968;2022-12-29T01:49:10;12.60;95.60
46440;DHT22;32138;50.966;6.968;2022-12-29T01:51:07;12.60;95.60
46440;DHT22;32138;50.966;6.968;2022-12-29T01:52:06;12.70;95.00
46440;DHT22;32138;50.966;6.968;2022-12-29T01:53:19;12.70;95.00
46440;DHT22;32138;50.966;6.968;2022-12-29T01:54:39;12.70;94.70
46440;DHT22;32138;50.966;6.968;2022-12-29T01:55:48;12.70;94.60
46440;DHT22;32138;50.966;6.968;2022-12-29T01:56:52;12.70;94.40
46440;DHT22;32138;50.966;6.968;2022-12-29T01:57:54;12.80;94.40
46440;DHT22;32138;50.966;6.968;2022-12-29T01:59:04;12.80;94.10
46440;DHT22;32138;50.966;6.968;2022-12-29T02:00:11;12.80;94.20
46440;DHT22;32138;50.966;6.968;2022-12-29T02:01:15;12.70;94.40
46440;DHT22;32138;50.966;6.968;2022-12-29T02:02:19;12.80;94.30
46440;DHT22;32138;50.966;6.968;2022-12-29T02:03:21;12.80;94.10
46440;DHT22;32138;50.966;6.968;2022-12-29T02:04:25;12.80;93.70
46440;DHT22;32138;50.966;6.968;2022-12-29T02:05:38;12.80;93.40
46440;DHT22;32138;50.966;6.968;2022-12-29T02:06:55;12.80;93.70
46440;DHT22;32138;50.966;6.968;2022-12-29T02:07:58;12.70;93.70
46440;DHT22;32138;50.966;6.968;2022-12-29T02:09:00;12.70;93.90
46440;DHT22;32138;50.966;6.968;2022-12-29T02:10:01;12.70;93.50
46440;DHT22;32138;50.966;6.968;2022-12-29T02:11:02;12.80;93.50
46440;DHT22;32138;50.966;6.968;2022-12-29T02:12:03;12.70;93.50
46440;DHT22;32138;50.966;6.968;2022-12-29T02:13:04;12.80;93.50
46440;DHT22;32138;50.966;6.968;2022-12-29T02:14:09;12.80;93.50
46440;DHT22;32138;50.966;6.968;2022-12-29T02:15:11;12.80;93.40
46440;DHT22;32138;50.966;6.968;2022-12-29T02:18:02;12.80;93.20
46440;DHT22;32138;50.966;6.968;2022-12-29T02:19:54;12.80;93.00
46440;DHT22;32138;50.966;6.968;2022-12-29T02:22:48;12.90;92.80
46440;DHT22;32138;50.966;6.968;2022-12-29T02:30:51;12.90;92.40
46440;DHT22;32138;50.966;6.968;2022-12-29T02:32:37;12.90;92.60
46440;DHT22;32138;50.966;6.968;2022-12-29T02:35:43;12.90;92.70
46440;DHT22;32138;50.966;6.968;2022-12-29T02:40:31;12.90;92.50
46440;DHT22;32138;50.966;6.968;2022-12-29T02:44:59;12.90;92.40
46440;DHT22;32138;50.966;6.968;2022-12-29T02:47:41;12.90;92.60
46440;DHT22;32138;50.966;6.968;2022-12-29T02:50:40;12.90;92.50
46440;DHT22;32138;50.966;6.968;2022-12-29T02:52:00;12.90;92.60
46440;DHT22;32138;50.966;6.968;2022-12-29T02:53:19;12.80;92.60
46440;DHT22;32138;50.966;6.968;2022-12-29T02:54:41;12.90;92.90
46440;DHT22;32138;50.966;6.968;2022-12-29T02:55:51;12.90;92.70
46440;DHT22;32138;50.966;6.968;2022-12-29T02:56:52;12.80;93.00
46440;DHT22;32138;50.966;6.968;2022-12-29T02:59:12;12.90;92.90
46440;DHT22;32138;50.966;6.968;2022-12-29T03:00:17;12.90;93.00
46440;DHT22;32138;50.966;6.968;2022-12-29T03:03:29;12.80;93.40
46440;DHT22;32138;50.966;6.968;2022-12-29T03:04:54;12.80;93.40
46440;DHT22;32138;50.966;6.968;2022-12-29T03:09:15;12.80;93.80
46440;DHT22;32138;50.966;6.968;2022-12-29T03:12:21;12.70;94.00
46440;DHT22;32138;50.966;6.968;2022-12-29T03:13:52;12.70;94.10
46440;DHT22;32138;50.966;6.968;2022-12-29T03:15:22;12.60;94.30
46440;DHT22;32138;50.966;6.968;2022-12-29T03:17:07;12.60;94.40
46440;DHT22;32138;50.966;6.968;2022-12-29T03:18:21;12.60;94.60
46440;DHT22;32138;50.966;6.968;2022-12-29T03:19:28;12.50;94.50
46440;DHT22;32138;50.966;6.968;2022-12-29T03:20:52;12.60;94.70
46440;DHT22;32138;50.966;6.968;2022-12-29T03:22:00;12.60;94.70
46440;DHT22;32138;50.966;6.968;2022-12-29T03:23:22;12.60;94.60
46440;DHT22;32138;50.966;6.968;2022-12-29T03:24:31;12.60;94.70
46440;DHT22;32138;50.966;6.968;2022-12-29T03:25:38;12.60;94.70
46440;DHT22;32138;50.966;6.968;2022-12-29T03:26:43;12.50;94.80
46440;DHT22;32138;50.966;6.968;2022-12-29T03:27:51;12.50;94.90
46440;DHT22;32138;50.966;6.968;2022-12-29T03:28:55;12.50;95.30
46440;DHT22;32138;50.966;6.968;2022-12-29T03:30:01;12.50;95.10
46440;DHT22;32138;50.966;6.968;2022-12-29T03:31:06;12.50;95.10
46440;DHT22;32138;50.966;6.968;2022-12-29T03:32:09;12.50;95.20
46440;DHT22;32138;50.966;6.968;2022-12-29T03:33:15;12.50;95.40
46440;DHT22;32138;50.966;6.968;2022-12-29T03:34:20;12.50;95.20
46440;DHT22;32138;50.966;6.968;2022-12-29T03:35:25;12.50;95.20
46440;DHT22;32138;50.966;6.968;2022-12-29T03:36:33;12.60;95.50
46440;DHT22;32138;50.966;6.968;2022-12-29T03:37:42;12.60;95.20
46440;DHT22;32138;50.966;6.968;2022-12-29T03:39:02;12.60;95.20
46440;DHT22;32138;50.966;6.968;2022-12-29T03:40:07;12.60;95.30
46440;DHT22;32138;50.966;6.968;2022-12-29T03:41:11;12.60;95.40
46440;DHT22;32138;50.966;6.968;2022-12-29T03:42:19;12.70;95.30
46440;DHT22;32138;50.966;6.968;2022-12-29T03:43:20;12.60;95.40
46440;DHT22;32138;50.966;6.968;2022-12-29T03:44:40;12.50;95.70
46440;DHT22;32138;50.966;6.968;2022-12-29T03:45:42;12.60;95.50
46440;DHT22;32138;50.966;6.968;2022-12-29T03:46:43;12.60;95.40
46440;DHT22;32138;50.966;6.968;2022-12-29T03:47:44;12.60;95.50
46440;DHT22;32138;50.966;6.968;2022-12-29T03:48:44;12.60;95.50
46440;DHT22;32138;50.966;6.968;2022-12-29T03:49:45;12.60;95.60
46440;DHT22;32138;50.966;6.968;2022-12-29T03:50:47;12.60;95.90
46440;DHT22;32138;50.966;6.968;2022-12-29T03:51:47;12.60;95.50
46440;DHT22;32138;50.966;6.968;2022-12-29T03:52:48;12.60;95.40
46440;DHT22;32138;50.966;6.968;2022-12-29T03:53:49;12.60;95.60
46440;DHT22;32138;50.966;6.968;2022-12-29T03:54:49;12.50;95.60
46440;DHT22;32138;50.966;6.968;2022-12-29T03:55:50;12.50;95.70
46440;DHT22;32138;50.966;6.968;2022-12-29T03:56:51;12.60;95.60
46440;DHT22;32138;50.966;6.968;2022-12-29T03:57:52;12.60;95.80
46440;DHT22;32138;50.966;6.968;2022-12-29T03:58:52;12.50;95.60
46440;DHT22;32138;50.966;6.968;2022-12-29T03:59:53;12.50;95.60
46440;DHT22;32138;50.966;6.968;2022-12-29T04:00:54;12.50;95.60
46440;DHT22;32138;50.966;6.968;2022-12-29T04:01:55;12.50;95.60
46440;DHT22;32138;50.966;6.968;2022-12-29T04:02:55;12.50;95.60
46440;DHT22;32138;50.966;6.968;2022-12-29T04:03:56;12.50;95.60
46440;DHT22;32138;50.966;6.968;2022-12-29T04:04:57;12.40;95.60
46440;DHT22;32138;50.966;6.968;2022-12-29T04:05:57;12.50;95.70
46440;DHT22;32138;50.966;6.968;2022-12-29T04:06:58;12.50;95.60
46440;DHT22;32138;50.966;6.968;2022-12-29T04:07:59;12.50;95.80
46440;DHT22;32138;50.966;6.968;2022-12-29T04:09:00;12.50;95.60
46440;DHT22;32138;50.966;6.968;2022-12-29T04:10:01;12.40;95.40
46440;DHT22;32138;50.966;6.968;2022-12-29T04:11:02;12.40;95.70
46440;DHT22;32138;50.966;6.968;2022-12-29T04:12:03;12.40;95.60
46440;DHT22;32138;50.966;6.968;2022-12-29T04:13:04;12.50;95.60
46440;DHT22;32138;50.966;6.968;2022-12-29T04:14:05;12.40;95.50
46440;DHT22;32138;50.966;6.968;2022-12-29T04:15:06;12.50;95.30
46440;DHT22;32138;50.966;6.968;2022-12-29T04:16:08;12.40;95.40
46440;DHT22;32138;50.966;6.968;2022-12-29T04:17:09;12.40;95.40
46440;DHT22;32138;50.966;6.968;2022-12-29T04:18:09;12.40;95.30
46440;DHT22;32138;50.966;6.968;2022-12-29T04:19:10;12.40;95.30
46440;DHT22;32138;50.966;6.968;2022-12-29T04:20:11;12.50;95.30
46440;DHT22;32138;50.966;6.968;2022-12-29T04:21:30;12.40;95.30
46440;DHT22;32138;50.966;6.968;2022-12-29T04:22:31;12.40;95.30
46440;DHT22;32138;50.966;6.968;2022-12-29T04:23:34;12.40;95.30
46440;DHT22;32138;50.966;6.968;2022-12-29T04:24:39;12.50;95.30
46440;DHT22;32138;50.966;6.968;2022-12-29T04:25:39;12.50;95.20
46440;DHT22;32138;50.966;6.968;2022-12-29T04:26:40;12.40;95.20
46440;DHT22;32138;50.966;6.968;2022-12-29T04:27:41;12.50;95.20
46440;DHT22;32138;50.966;6.968;2022-12-29T04:28:42;12.40;95.30
46440;DHT22;32138;50.966;6.968;2022-12-29T04:29:43;12.40;95.20
46440;DHT22;32138;50.966;6.968;2022-12-29T04:30:44;12.50;95.20
46440;DHT22;32138;50.966;6.968;2022-12-29T04:31:46;12.40;95.20
46440;DHT22;32138;50.966;6.968;2022-12-29T04:32:46;12.40;95.20
46440;DHT22;32138;50.966;6.968;2022-12-29T04:33:47;12.40;95.30
46440;DHT22;32138;50.966;6.968;2022-12-29T04:34:48;12.50;95.20
46440;DHT22;32138;50.966;6.968;2022-12-29T04:35:49;12.40;95.40
46440;DHT22;32138;50.966;6.968;2022-12-29T04:36:49;12.40;95.10
46440;DHT22;32138;50.966;6.968;2022-12-29T04:37:50;12.50;95.10
46440;DHT22;32138;50.966;6.968;2022-12-29T04:38:51;12.50;95.20
46440;DHT22;32138;50.966;6.968;2022-12-29T04:39:52;12.50;95.10
46440;DHT22;32138;50.966;6.968;2022-12-29T04:40:52;12.50;95.20
46440;DHT22;32138;50.966;6.968;2022-12-29T04:41:53;12.50;95.20
46440;DHT22;32138;50.966;6.968;2022-12-29T04:42:54;12.50;95.10
46440;DHT22;32138;50.966;6.968;2022-12-29T04:43:55;12.50;95.10
46440;DHT22;32138;50.966;6.968;2022-12-29T04:44:56;12.50;94.90
46440;DHT22;32138;50.966;6.968;2022-12-29T04:45:56;12.50;95.10
46440;DHT22;32138;50.966;6.968;2022-12-29T04:46:57;12.60;95.10
46440;DHT22;32138;50.966;6.968;2022-12-29T04:47:58;12.60;95.00
46440;DHT22;32138;50.966;6.968;2022-12-29T04:48:59;12.60;94.80
46440;DHT22;32138;50.966;6.968;2022-12-29T04:50:05;12.60;94.60
46440;DHT22;32138;50.966;6.968;2022-12-29T04:51:06;12.60;94.50
46440;DHT22;32138;50.966;6.968;2022-12-29T04:52:06;12.60;94.70
46440;DHT22;32138;50.966;6.968;2022-12-29T04:53:08;12.70;94.60
46440;DHT22;32138;50.966;6.968;2022-12-29T04:54:09;12.70;94.50
46440;DHT22;32138;50.966;6.968;2022-12-29T04:55:10;12.70;94.50
46440;DHT22;32138;50.966;6.968;2022-12-29T04:56:11;12.70;94.60
46440;DHT22;32138;50.966;6.968;2022-12-29T04:57:11;12.80;94.30
46440;DHT22;32138;50.966;6.968;2022-12-29T04:58:12;12.70;94.30
46440;DHT22;32138;50.966;6.968;2022-12-29T04:59:13;12.70;94.20
46440;DHT22;32138;50.966;6.968;2022-12-29T05:00:14;12.70;94.30
46440;DHT22;32138;50.966;6.968;2022-12-29T05:01:15;12.70;94.00
46440;DHT22;32138;50.966;6.968;2022-12-29T05:02:16;12.70;94.20
46440;DHT22;32138;50.966;6.968;2022-12-29T05:03:17;12.70;94.10
46440;DHT22;32138;50.966;6.968;2022-12-29T05:04:18;12.70;94.10
46440;DHT22;32138;50.966;6.968;2022-12-29T05:05:19;12.70;94.10
46440;DHT22;32138;50.966;6.968;2022-12-29T05:06:20;12.70;93.80
46440;DHT22;32138;50.966;6.968;2022-12-29T05:07:20;12.60;94.10
46440;DHT22;32138;50.966;6.968;2022-12-29T05:08:22;12.70;93.90
46440;DHT22;32138;50.966;6.968;2022-12-29T05:09:23;12.70;93.90
46440;DHT22;32138;50.966;6.968;2022-12-29T05:10:24;12.70;93.80
46440;DHT22;32138;50.966;6.968;2022-12-29T05:11:25;12.70;93.80
46440;DHT22;32138;50.966;6.968;2022-12-29T05:12:30;12.70;93.70
46440;DHT22;32138;50.966;6.968;2022-12-29T05:13:31;12.70;93.90
46440;DHT22;32138;50.966;6.968;2022-12-29T05:14:32;12.70;93.40
46440;DHT22;32138;50.966;6.968;2022-12-29T05:15:33;12.70;93.50
46440;DHT22;32138;50.966;6.968;2022-12-29T05:16:33;12.70;93.50
46440;DHT22;32138;50.966;6.968;2022-12-29T05:17:34;12.60;93.90
46440;DHT22;32138;50.966;6.968;2022-12-29T05:18:35;12.60;93.60
46440;DHT22;32138;50.966;6.968;2022-12-29T05:19:36;12.60;93.40
46440;DHT22;32138;50.966;6.968;2022-12-29T05:20:38;12.60;93.50
46440;DHT22;32138;50.966;6.968;2022-12-29T05:21:39;12.60;93.50
46440;DHT22;32138;50.966;6.968;2022-12-29T05:22:39;12.70;93.30
46440;DHT22;32138;50.966;6.968;2022-12-29T05:23:40;12.70;93.10
46440;DHT22;32138;50.966;6.968;2022-12-29T05:24:41;12.70;93.10
46440;DHT22;32138;50.966;6.968;2022-12-29T05:25:43;12.70;93.10
46440;DHT22;32138;50.966;6.968;2022-12-29T05:26:45;12.70;92.80
46440;DHT22;32138;50.966;6.968;2022-12-29T05:27:46;12.70;92.90
46440;DHT22;32138;50.966;6.968;2022-12-29T05:28:50;12.70;92.80
46440;DHT22;32138;50.966;6.968;2022-12-29T05:29:51;12.70;93.00
46440;DHT22;32138;50.966;6.968;2022-12-29T05:30:52;12.70;93.00
46440;DHT22;32138;50.966;6.968;2022-12-29T05:31:53;12.70;92.70
46440;DHT22;32138;50.966;6.968;2022-12-29T05:32:54;12.70;92.70
46440;DHT22;32138;50.966;6.968;2022-12-29T05:33:55;12.70;92.60
46440;DHT22;32138;50.966;6.968;2022-12-29T05:34:55;12.70;92.60
46440;DHT22;32138;50.966;6.968;2022-12-29T05:35:56;12.70;92.60
46440;DHT22;32138;50.966;6.968;2022-12-29T05:36:57;12.70;92.70
46440;DHT22;32138;50.966;6.968;2022-12-29T05:37:58;12.70;92.60
46440;DHT22;32138;50.966;6.968;2022-12-29T05:38:58;12.70;92.50
46440;DHT22;32138;50.966;6.968;2022-12-29T05:39:59;12.70;92.70
46440;DHT22;32138;50.966;6.968;2022-12-29T05:41:00;12.60;92.70
46440;DHT22;32138;50.966;6.968;2022-12-29T05:42:01;12.60;92.80
46440;DHT22;32138;50.966;6.968;2022-12-29T05:43:02;12.70;92.30
46440;DHT22;32138;50.966;6.968;2022-12-29T05:44:03;12.70;92.60
46440;DHT22;32138;50.966;6.968;2022-12-29T05:45:04;12.80;92.30
46440;DHT22;32138;50.966;6.968;2022-12-29T05:46:07;12.70;92.50
46440;DHT22;32138;50.966;6.968;2022-12-29T05:47:08;12.70;92.50
46440;DHT22;32138;50.966;6.968;2022-12-29T05:48:08;12.70;92.60
46440;DHT22;32138;50.966;6.968;2022-12-29T05:49:09;12.70;92.60
46440;DHT22;32138;50.966;6.968;2022-12-29T05:50:10;12.80;92.40
46440;DHT22;32138;50.966;6.968;2022-12-29T05:51:11;12.80;92.50
46440;DHT22;32138;50.966;6.968;2022-12-29T05:52:11;12.80;92.50
46440;DHT22;32138;50.966;6.968;2022-12-29T05:53:12;12.90;92.50
46440;DHT22;32138;50.966;6.968;2022-12-29T05:54:13;12.90;92.60
46440;DHT22;32138;50.966;6.968;2022-12-29T05:55:14;12.90;92.40
46440;DHT22;32138;50.966;6.968;2022-12-29T05:56:15;12.80;92.40
46440;DHT22;32138;50.966;6.968;2022-12-29T05:57:16;12.80;92.50
46440;DHT22;32138;50.966;6.968;2022-12-29T05:58:17;12.90;92.40
46440;DHT22;32138;50.966;6.968;2022-12-29T05:59:18;12.90;92.30
46440;DHT22;32138;50.966;6.968;2022-12-29T06:00:19;12.80;92.40
46440;DHT22;32138;50.966;6.968;2022-12-29T06:01:19;12.80;92.40
46440;DHT22;32138;50.966;6.968;2022-12-29T06:02:20;12.80;92.50
46440;DHT22;32138;50.966;6.968;2022-12-29T06:03:21;12.80;92.40
46440;DHT22;32138;50.966;6.968;2022-12-29T06:04:22;12.80;92.30
46440;DHT22;32138;50.966;6.968;2022-12-29T06:05:22;12.80;92.40
46440;DHT22;32138;50.966;6.968;2022-12-29T06:06:23;12.90;92.30
46440;DHT22;32138;50.966;6.968;2022-12-29T06:07:24;12.90;92.20
46440;DHT22;32138;50.966;6.968;2022-12-29T06:08:25;12.90;92.20
46440;DHT22;32138;50.966;6.968;2022-12-29T06:09:25;12.90;92.20
46440;DHT22;32138;50.966;6.968;2022-12-29T06:10:26;13.00;92.30
46440;DHT22;32138;50.966;6.968;2022-12-29T06:11:27;12.90;92.20
46440;DHT22;32138;50.966;6.968;2022-12-29T06:12:28;12.90;92.20
46440;DHT22;32138;50.966;6.968;2022-12-29T06:13:29;12.90;92.20
46440;DHT22;32138;50.966;6.968;2022-12-29T06:14:29;13.00;92.10
46440;DHT22;32138;50.966;6.968;2022-12-29T06:15:31;13.00;92.30
46440;DHT22;32138;50.966;6.968;2022-12-29T06:16:32;12.90;92.20
46440;DHT22;32138;50.966;6.968;2022-12-29T06:17:32;12.90;92.00
46440;DHT22;32138;50.966;6.968;2022-12-29T06:18:33;12.90;92.10
46440;DHT22;32138;50.966;6.968;2022-12-29T06:19:34;13.00;91.90
46440;DHT22;32138;50.966;6.968;2022-12-29T06:20:35;13.00;92.10
46440;DHT22;32138;50.966;6.968;2022-12-29T06:21:35;12.90;91.70
46440;DHT22;32138;50.966;6.968;2022-12-29T06:22:37;12.80;91.80
46440;DHT22;32138;50.966;6.968;2022-12-29T06:23:38;12.90;91.80
46440;DHT22;32138;50.966;6.968;2022-12-29T06:24:39;12.80;91.90
46440;DHT22;32138;50.966;6.968;2022-12-29T06:25:40;12.80;91.90
46440;DHT22;32138;50.966;6.968;2022-12-29T06:26:41;12.90;91.70
46440;DHT22;32138;50.966;6.968;2022-12-29T06:27:42;12.90;91.60
46440;DHT22;32138;50.966;6.968;2022-12-29T06:28:43;12.90;91.70
46440;DHT22;32138;50.966;6.968;2022-12-29T06:29:44;12.90;91.70
46440;DHT22;32138;50.966;6.968;2022-12-29T06:30:45;12.90;91.80
46440;DHT22;32138;50.966;6.968;2022-12-29T06:31:46;12.80;91.80
46440;DHT22;32138;50.966;6.968;2022-12-29T06:32:47;12.80;92.20
46440;DHT22;32138;50.966;6.968;2022-12-29T06:33:47;12.80;92.10
46440;DHT22;32138;50.966;6.968;2022-12-29T06:34:48;12.80;92.20
46440;DHT22;32138;50.966;6.968;2022-12-29T06:35:49;12.90;92.30
46440;DHT22;32138;50.966;6.968;2022-12-29T06:36:51;12.90;92.30
46440;DHT22;32138;50.966;6.968;2022-12-29T06:37:51;12.80;92.20
46440;DHT22;32138;50.966;6.968;2022-12-29T06:38:52;12.80;92.20
46440;DHT22;32138;50.966;6.968;2022-12-29T06:39:53;12.80;92.30
46440;DHT22;32138;50.966;6.968;2022-12-29T06:40:54;12.80;92.10
46440;DHT22;32138;50.966;6.968;2022-12-29T06:41:55;12.80;92.50
46440;DHT22;32138;50.966;6.968;2022-12-29T06:42:55;12.80;92.30
46440;DHT22;32138;50.966;6.968;2022-12-29T06:43:56;12.80;92.20
46440;DHT22;32138;50.966;6.968;2022-12-29T06:44:57;12.80;92.20
46440;DHT22;32138;50.966;6.968;2022-12-29T06:45:59;12.90;92.10
46440;DHT22;32138;50.966;6.968;2022-12-29T06:46:59;12.80;92.20
46440;DHT22;32138;50.966;6.968;2022-12-29T06:48:00;12.90;92.30
46440;DHT22;32138;50.966;6.968;2022-12-29T06:49:01;12.90;92.60
46440;DHT22;32138;50.966;6.968;2022-12-29T06:50:02;12.80;92.30
46440;DHT22;32138;50.966;6.968;2022-12-29T06:51:03;12.80;92.20
46440;DHT22;32138;50.966;6.968;2022-12-29T06:52:04;12.80;92.20
46440;DHT22;32138;50.966;6.968;2022-12-29T06:53:05;12.80;92.30
46440;DHT22;32138;50.966;6.968;2022-12-29T06:54:06;12.80;92.30
46440;DHT22;32138;50.966;6.968;2022-12-29T06:55:07;12.80;92.10
46440;DHT22;32138;50.966;6.968;2022-12-29T06:56:08;12.80;92.30
46440;DHT22;32138;50.966;6.968;2022-12-29T06:57:09;12.80;92.40
46440;DHT22;32138;50.966;6.968;2022-12-29T06:58:09;12.80;92.20
46440;DHT22;32138;50.966;6.968;2022-12-29T06:59:10;12.80;92.20
46440;DHT22;32138;50.966;6.968;2022-12-29T07:00:11;12.80;92.50
46440;DHT22;32138;50.966;6.968;2022-12-29T07:01:12;12.80;92.50
46440;DHT22;32138;50.966;6.968;2022-12-29T07:02:13;12.80;92.50
46440;DHT22;32138;50.966;6.968;2022-12-29T07:03:15;12.80;92.40
46440;DHT22;32138;50.966;6.968;2022-12-29T07:04:15;12.90;92.40
46440;DHT22;32138;50.966;6.968;2022-12-29T07:05:16;12.90;92.30
46440;DHT22;32138;50.966;6.968;2022-12-29T07:06:17;12.80;92.40
46440;DHT22;32138;50.966;6.968;2022-12-29T07:07:19;12.80;92.30
46440;DHT22;32138;50.966;6.968;2022-12-29T07:08:20;12.80;92.40
46440;DHT22;32138;50.966;6.968;2022-12-29T07:09:21;12.70;92.40
46440;DHT22;32138;50.966;6.968;2022-12-29T07:10:22;12.80;92.40
46440;DHT22;32138;50.966;6.968;2022-12-29T07:11:23;12.80;92.30
46440;DHT22;32138;50.966;6.968;2022-12-29T07:12:24;12.70;92.50
46440;DHT22;32138;50.966;6.968;2022-12-29T07:13:25;12.70;92.30
46440;DHT22;32138;50.966;6.968;2022-12-29T07:14:25;12.70;92.20
46440;DHT22;32138;50.966;6.968;2022-12-29T07:15:26;12.70;92.20
46440;DHT22;32138;50.966;6.968;2022-12-29T07:16:27;12.70;92.00
46440;DHT22;32138;50.966;6.968;2022-12-29T07:17:29;12.70;92.00